ENFB/FBU METAR and TAF weather

Enter ICAO airport designator
Station Type Date Time Source
ENFB METAR 2019/08/24 08:50 UTC NOAA

ENFB 240850Z AUTO 17033KT 8000NDV BKN004/// 15/14 Q1017 W///S3


Station Type Date Time Source
ENFB Decoded METAR 2019/08/24 08:50 UTC NOAA

Station name not available
Aug 24, 2019 - 04:50 AM EDT / 2019.08.24 0850 UTC
Wind: from the S (170 degrees) at 38 MPH (33 KT):0
Sky conditions: mostly cloudy
Temperature: 59 F (15 C)
Dew Point: 57 F (14 C)
Relative Humidity: 93%
Pressure (altimeter): 30.03 in. Hg (1017 hPa)
ob: ENFB 240850Z AUTO 17033KT 8000NDV BKN004/// 15/14 Q1017 W///S3
cycle: 9

Station Type Date Time Source
ENFB TAF UTC NOAA

Error!

Example: see airport list